Time;durP1;ratioP1;P1;durP2;ratioP2;P2;SDS_P1;SDS_P2;PMS_P1;PMS_P2;Temp;Humidity;BMP_temperature;BMP_pressure;BME280_temperature;BME280_humidity;BME280_pressure;Samples;Min_cycle;Max_cycle;Signal;HPM_P1;HPM_P2
2023/01/31 00:01:17;;;;;;;39.80;5.00;;;5.10;99.90;;;;;;5108780;28;20075;-63
2023/01/31 00:03:43;;;;;;;43.22;5.53;;;5.00;99.90;;;;;;5107740;28;20035;-63
2023/01/31 00:06:18;;;;;;;35.67;4.78;;;4.90;99.90;;;;;;5141110;27;20100;-63
2023/01/31 00:08:46;;;;;;;38.05;4.40;;;4.80;99.90;;;;;;5089980;28;20498;-63
2023/01/31 00:11:13;;;;;;;29.33;3.92;;;4.70;99.90;;;;;;5093070;28;20066;-63
2023/01/31 00:13:40;;;;;;;40.50;4.38;;;4.60;99.90;;;;;;5107631;28;20499;-63
2023/01/31 00:16:07;;;;;;;42.53;4.97;;;4.50;99.90;;;;;;5103630;27;20055;-63
2023/01/31 00:18:33;;;;;;;33.70;5.32;;;4.50;99.90;;;;;;5105428;28;20493;-63
2023/01/31 00:21:11;;;;;;;42.03;4.80;;;4.40;99.90;;;;;;5106500;28;20092;-63
2023/01/31 00:23:39;;;;;;;24.63;3.67;;;4.40;99.90;;;;;;5102742;28;20035;-63
2023/01/31 00:26:14;;;;;;;40.67;5.35;;;4.40;99.90;;;;;;5091669;28;20363;-63
2023/01/31 00:28:41;;;;;;;32.83;4.75;;;4.40;99.90;;;;;;5089825;27;20052;-63
2023/01/31 00:31:08;;;;;;;39.65;5.63;;;4.40;99.90;;;;;;5088613;28;20537;-63
2023/01/31 00:33:35;;;;;;;31.65;4.50;;;4.40;99.90;;;;;;5118857;27;20581;-63
2023/01/31 00:36:05;;;;;;;40.70;5.50;;;4.40;99.90;;;;;;5086013;28;20086;-63
2023/01/31 00:38:32;;;;;;;19.73;2.92;;;4.30;99.90;;;;;;5120377;27;20032;-63
2023/01/31 00:40:58;;;;;;;12.98;2.88;;;4.20;99.90;;;;;;5087253;28;20056;-63
2023/01/31 00:43:23;;;;;;;19.48;2.90;;;4.10;99.90;;;;;;5086997;28;20044;-63
2023/01/31 00:45:49;;;;;;;22.52;2.15;;;4.00;99.90;;;;;;5086961;28;20039;-63
2023/01/31 00:48:15;;;;;;;18.63;2.63;;;4.00;99.90;;;;;;5124692;27;20048;-63
2023/01/31 00:50:41;;;;;;;25.30;3.67;;;3.90;99.90;;;;;;5092060;28;20085;-63
2023/01/31 00:53:08;;;;;;;30.85;4.03;;;3.90;99.90;;;;;;5125796;27;20068;-63
2023/01/31 00:55:34;;;;;;;37.35;3.97;;;3.80;99.90;;;;;;5086578;28;20370;-63
2023/01/31 00:58:00;;;;;;;32.35;3.78;;;3.80;99.90;;;;;;5125850;27;20044;-63
2023/01/31 01:00:26;;;;;;;24.40;3.38;;;3.80;99.90;;;;;;5086737;28;20040;-63
2023/01/31 01:02:52;;;;;;;37.45;4.35;;;3.70;99.90;;;;;;5103387;28;20043;-64
2023/01/31 01:05:18;;;;;;;17.90;2.95;;;3.70;99.90;;;;;;5107246;28;20100;-63
2023/01/31 01:07:43;;;;;;;44.83;5.55;;;3.70;99.90;;;;;;5106481;28;20039;-63
2023/01/31 01:10:10;;;;;;;16.15;2.50;;;3.70;99.90;;;;;;5096364;28;20075;-63
2023/01/31 01:12:36;;;;;;;27.55;3.90;;;3.60;99.90;;;;;;5102057;28;20039;-64
2023/01/31 01:15:02;;;;;;;21.55;2.90;;;3.60;99.90;;;;;;5107848;28;20052;-63
2023/01/31 01:17:28;;;;;;;31.08;4.18;;;3.60;99.90;;;;;;5100979;28;20122;-63
2023/01/31 01:19:54;;;;;;;40.47;5.03;;;3.60;99.90;;;;;;5092562;28;20127;-63
2023/01/31 01:22:20;;;;;;;31.02;3.85;;;3.60;99.90;;;;;;5107342;28;20043;-64
2023/01/31 01:24:45;;;;;;;21.73;2.95;;;3.50;99.90;;;;;;5106848;28;20367;-63
2023/01/31 01:27:12;;;;;;;34.45;4.38;;;3.50;99.90;;;;;;5111213;28;20053;-63
2023/01/31 01:29:38;;;;;;;36.22;4.75;;;3.50;99.90;;;;;;5111308;27;20387;-63
2023/01/31 01:32:05;;;;;;;45.55;5.43;;;3.50;99.90;;;;;;5107693;28;20128;-63
2023/01/31 01:34:32;;;;;;;42.97;4.88;;;3.50;99.90;;;;;;5106051;28;20051;-63
2023/01/31 01:36:58;;;;;;;16.55;2.53;;;3.50;99.90;;;;;;5092538;28;20374;-63
2023/01/31 01:39:24;;;;;;;25.88;3.17;;;3.50;99.90;;;;;;5106716;28;20058;-63
2023/01/31 01:41:51;;;;;;;31.85;4.57;;;3.50;99.90;;;;;;5139551;27;20073;-63
2023/01/31 01:44:55;;;;;;;40.55;5.97;;;3.50;99.90;;;;;;5107207;28;20082;-63
2023/01/31 01:47:43;;;;;;;20.58;2.67;;;3.50;99.90;;;;;;5092308;28;20482;-62
2023/01/31 01:50:33;;;;;;;11.95;2.05;;;3.50;99.90;;;;;;5106822;28;20050;-63
2023/01/31 01:53:05;;;;;;;36.58;4.75;;;3.60;99.90;;;;;;5112929;28;20070;-63
2023/01/31 01:55:57;;;;;;;6.53;1.05;;;3.50;99.90;;;;;;5117039;28;20105;-63
2023/01/31 01:58:27;;;;;;;34.75;4.50;;;3.50;99.90;;;;;;5106467;28;20143;-63
2023/01/31 02:00:54;;;;;;;23.00;2.70;;;3.50;99.90;;;;;;5111256;27;20044;-63
2023/01/31 02:03:20;;;;;;;17.90;2.45;;;3.50;99.90;;;;;;5117848;27;20852;-63
2023/01/31 02:05:51;;;;;;;43.28;5.70;;;3.50;99.90;;;;;;5110832;28;20165;-62
2023/01/31 02:08:19;;;;;;;20.35;2.80;;;3.50;99.90;;;;;;5109686;28;20189;-63
2023/01/31 02:10:54;;;;;;;29.13;3.80;;;3.50;99.90;;;;;;5095439;28;20036;-63
2023/01/31 02:13:20;;;;;;;20.52;3.00;;;3.50;99.90;;;;;;5114221;27;20114;-63
2023/01/31 02:15:47;;;;;;;20.48;2.75;;;3.50;99.90;;;;;;5110615;28;20039;-63
2023/01/31 02:18:13;;;;;;;22.27;3.55;;;3.50;99.90;;;;;;5110719;28;20046;-62
2023/01/31 02:21:24;;;;;;;15.85;1.60;;;3.50;99.90;;;;;;5095635;28;20375;-63
2023/01/31 02:24:13;;;;;;;12.85;2.15;;;3.60;99.90;;;;;;5100095;28;20050;-62
2023/01/31 02:27:05;;;;;;;21.52;2.53;;;3.60;99.90;;;;;;5097305;28;20784;-63
2023/01/31 02:30:06;;;;;;;14.10;2.90;;;3.70;99.90;;;;;;5109031;28;20508;-63
2023/01/31 02:32:51;;;;;;;2.35;0.47;;;3.70;99.90;;;;;;5086974;27;20040;-63
2023/01/31 02:35:44;;;;;;;33.97;3.53;;;3.80;99.90;;;;;;5100774;27;20047;-63
2023/01/31 02:38:38;;;;;;;24.13;2.75;;;3.80;99.90;;;;;;5096809;28;20048;-63
2023/01/31 02:41:12;;;;;;;19.05;2.67;;;3.90;99.90;;;;;;5102336;28;20131;-63
2023/01/31 02:46:59;;;;;;;23.92;3.05;;;4.00;99.90;;;;;;5101340;28;20040;-63
2023/01/31 02:49:33;;;;;;;27.77;3.15;;;4.10;99.90;;;;;;5089604;28;20048;-63
2023/01/31 02:52:16;;;;;;;20.65;2.75;;;4.10;99.90;;;;;;5089058;28;20078;-63
2023/01/31 02:58:13;;;;;;;26.58;3.28;;;4.20;99.90;;;;;;5109096;27;20039;-63
2023/01/31 03:00:42;;;;;;;24.88;3.90;;;4.20;99.90;;;;;;5087137;28;20036;-63
2023/01/31 03:03:21;;;;;;;28.40;2.72;;;4.10;99.90;;;;;;5094128;28;20048;-63
2023/01/31 03:06:23;;;;;;;28.88;2.65;;;4.10;99.90;;;;;;5089417;28;20052;-63
2023/01/31 03:09:20;;;;;;;21.23;2.88;;;4.20;99.90;;;;;;5087874;28;20414;-63
2023/01/31 03:11:55;;;;;;;26.10;3.20;;;4.20;99.90;;;;;;5098273;28;20056;-63
2023/01/31 03:14:26;;;;;;;21.33;2.80;;;4.20;99.90;;;;;;5109446;28;20047;-63
2023/01/31 03:19:59;;;;;;;15.68;1.27;;;4.30;99.90;;;;;;5096110;28;20497;-63
2023/01/31 03:22:30;;;;;;;19.08;3.03;;;4.30;99.90;;;;;;5106990;28;20461;-63
2023/01/31 03:24:58;;;;;;;31.45;3.88;;;4.30;99.90;;;;;;5109233;28;20070;-63
2023/01/31 03:27:24;;;;;;;21.95;2.55;;;4.30;99.90;;;;;;5091277;27;20043;-63
2023/01/31 03:29:55;;;;;;;36.90;3.65;;;4.30;99.90;;;;;;5107093;28;20455;-63
2023/01/31 03:32:29;;;;;;;20.92;2.65;;;4.40;99.90;;;;;;5109087;28;20108;-63
2023/01/31 03:34:55;;;;;;;12.57;2.50;;;4.30;99.90;;;;;;5108555;28;20043;-64
2023/01/31 03:37:44;;;;;;;20.75;3.30;;;4.30;99.90;;;;;;5109268;28;20142;-63
2023/01/31 03:40:24;;;;;;;28.65;3.08;;;4.30;99.90;;;;;;5108448;27;20047;-63
2023/01/31 03:43:02;;;;;;;24.50;3.35;;;4.40;99.90;;;;;;5108727;28;20054;-63
2023/01/31 03:45:37;;;;;;;17.70;2.28;;;4.40;99.90;;;;;;5108869;28;20093;-63
2023/01/31 03:48:13;;;;;;;22.02;2.65;;;4.30;99.90;;;;;;5092701;27;20047;-63
2023/01/31 03:51:01;;;;;;;22.45;2.97;;;4.30;99.90;;;;;;5108486;27;20043;-63
2023/01/31 03:53:45;;;;;;;27.83;2.92;;;4.30;99.90;;;;;;5106787;28;20139;-63
2023/01/31 03:56:43;;;;;;;23.33;2.65;;;4.30;99.90;;;;;;5108033;28;20127;-63
2023/01/31 03:59:16;;;;;;;18.38;2.35;;;4.30;99.90;;;;;;5103577;28;20060;-63
2023/01/31 04:01:47;;;;;;;21.45;2.75;;;4.20;99.90;;;;;;5103256;28;20100;-63
2023/01/31 04:04:20;;;;;;;18.35;2.25;;;4.20;99.90;;;;;;5108064;28;20473;-63
2023/01/31 04:06:46;;;;;;;25.55;3.75;;;4.20;99.90;;;;;;5107037;28;20082;-63
2023/01/31 04:09:11;;;;;;;24.58;3.30;;;4.20;99.90;;;;;;5101725;27;20055;-63
2023/01/31 04:11:40;;;;;;;23.52;2.90;;;4.10;99.90;;;;;;5106687;28;20028;-63
2023/01/31 04:14:07;;;;;;;25.02;3.38;;;4.10;99.90;;;;;;5106423;28;20043;-63
2023/01/31 04:16:33;;;;;;;20.42;3.28;;;4.10;99.90;;;;;;5108253;28;20035;-63
2023/01/31 04:18:59;;;;;;;28.88;3.45;;;4.20;99.90;;;;;;5118686;27;20050;-63
2023/01/31 04:21:24;;;;;;;19.92;2.65;;;4.20;99.90;;;;;;5093083;28;20417;-63
2023/01/31 04:23:51;;;;;;;24.67;3.13;;;4.20;99.90;;;;;;5107482;28;20244;-63
2023/01/31 04:26:16;;;;;;;36.95;3.47;;;4.20;99.90;;;;;;5107352;27;20616;-63
2023/01/31 04:28:42;;;;;;;21.52;3.20;;;4.20;99.90;;;;;;5113052;27;20034;-63
2023/01/31 04:31:08;;;;;;;16.75;2.25;;;4.20;99.90;;;;;;5119132;27;20051;-63
2023/01/31 04:33:34;;;;;;;19.45;2.85;;;4.30;99.90;;;;;;5072517;28;20044;-63
2023/01/31 04:36:00;;;;;;;23.42;3.15;;;4.30;99.90;;;;;;5107815;28;20124;-63
2023/01/31 04:38:26;;;;;;;18.05;2.55;;;4.30;99.90;;;;;;5126238;27;20457;-63
2023/01/31 04:40:52;;;;;;;23.10;2.95;;;4.30;99.90;;;;;;5107682;27;20036;-63
2023/01/31 04:43:18;;;;;;;16.70;2.38;;;4.40;99.90;;;;;;5107040;28;20507;-63
2023/01/31 04:45:43;;;;;;;24.27;2.70;;;4.40;99.90;;;;;;5107932;28;20043;-63
2023/01/31 04:48:10;;;;;;;20.15;3.08;;;4.50;99.90;;;;;;5106836;28;20513;-63
2023/01/31 04:50:36;;;;;;;20.63;3.28;;;4.50;99.90;;;;;;5107703;28;20477;-63
2023/01/31 04:53:01;;;;;;;33.10;3.53;;;4.50;99.90;;;;;;5106001;27;20039;-63
2023/01/31 04:55:28;;;;;;;30.23;3.65;;;4.60;99.90;;;;;;5141128;27;20085;-63
2023/01/31 04:57:53;;;;;;;22.70;2.75;;;4.50;99.90;;;;;;5107240;28;20082;-63
2023/01/31 05:00:19;;;;;;;19.15;3.00;;;4.60;99.90;;;;;;5107198;28;20071;-63
2023/01/31 05:02:46;;;;;;;19.73;3.20;;;4.60;99.90;;;;;;5116092;28;20106;-63
2023/01/31 05:05:11;;;;;;;20.70;3.42;;;4.70;99.90;;;;;;5110407;27;20048;-63
2023/01/31 05:07:38;;;;;;;24.40;3.60;;;4.70;99.90;;;;;;5107589;28;20131;-63
2023/01/31 05:10:04;;;;;;;32.92;3.58;;;4.70;99.90;;;;;;5096216;28;20036;-63
2023/01/31 05:12:30;;;;;;;24.98;2.83;;;4.80;99.90;;;;;;5103665;28;20116;-63
2023/01/31 05:14:56;;;;;;;22.52;3.60;;;4.80;99.90;;;;;;5106598;28;20043;-63
2023/01/31 05:17:28;;;;;;;28.38;4.38;;;4.80;99.90;;;;;;5107246;28;20077;-63
2023/01/31 05:19:57;;;;;;;26.70;3.60;;;4.90;99.90;;;;;;5107192;28;20493;-63
2023/01/31 05:22:23;;;;;;;21.02;2.90;;;5.00;99.90;;;;;;5089088;28;20044;-63
2023/01/31 05:24:50;;;;;;;18.45;3.88;;;5.00;99.90;;;;;;5092029;28;20047;-63
2023/01/31 05:27:18;;;;;;;28.40;2.75;;;5.10;99.90;;;;;;5106705;28;20043;-63
2023/01/31 05:29:44;;;;;;;36.45;3.13;;;5.10;99.90;;;;;;5107292;28;20097;-63
2023/01/31 05:32:11;;;;;;;27.05;3.90;;;5.20;99.90;;;;;;5106614;28;20079;-63
2023/01/31 05:34:37;;;;;;;21.55;2.42;;;5.20;99.90;;;;;;5120495;27;20047;-63
2023/01/31 05:37:03;;;;;;;33.80;4.10;;;5.20;99.90;;;;;;5109814;28;20066;-63
2023/01/31 05:39:30;;;;;;;35.92;4.80;;;5.30;99.90;;;;;;5109113;28;20122;-63
2023/01/31 05:41:56;;;;;;;24.85;3.58;;;5.30;99.90;;;;;;5111084;28;20389;-63
2023/01/31 05:44:22;;;;;;;39.28;4.45;;;5.30;99.90;;;;;;5101377;27;20043;-64
2023/01/31 05:46:48;;;;;;;21.70;3.67;;;5.30;99.90;;;;;;5111960;27;20039;-63
2023/01/31 05:49:14;;;;;;;32.53;3.75;;;5.30;99.90;;;;;;5110011;28;20047;-63
2023/01/31 05:51:40;;;;;;;6.22;1.52;;;5.30;99.90;;;;;;5093088;28;20047;-63
2023/01/31 05:54:06;;;;;;;34.90;4.85;;;5.40;99.90;;;;;;5111681;27;20599;-63
2023/01/31 05:56:32;;;;;;;25.33;3.58;;;5.40;99.90;;;;;;5109000;28;20047;-63
2023/01/31 05:59:01;;;;;;;22.88;3.55;;;5.40;99.90;;;;;;5110897;28;20165;-63
2023/01/31 06:01:26;;;;;;;33.97;4.70;;;5.40;99.90;;;;;;5108998;28;20048;-63
2023/01/31 06:03:52;;;;;;;7.85;2.03;;;5.40;99.90;;;;;;5111033;28;20481;-63
2023/01/31 06:06:18;;;;;;;10.35;1.60;;;5.40;99.90;;;;;;5100431;27;20497;-63
2023/01/31 06:08:44;;;;;;;32.65;4.70;;;5.50;99.90;;;;;;5110631;28;20525;-63
2023/01/31 06:11:12;;;;;;;26.45;5.68;;;5.40;99.90;;;;;;5100838;27;20039;-63
2023/01/31 06:13:38;;;;;;;25.17;3.63;;;5.50;99.90;;;;;;5110152;28;20427;-63
2023/01/31 06:16:05;;;;;;;38.28;4.53;;;5.40;99.90;;;;;;5113893;27;20035;-63
2023/01/31 06:18:31;;;;;;;30.30;3.70;;;5.50;99.90;;;;;;5108597;28;20097;-63
2023/01/31 06:20:57;;;;;;;28.50;3.55;;;5.50;99.90;;;;;;5108318;28;20101;-63
2023/01/31 06:23:23;;;;;;;23.52;3.13;;;5.50;99.90;;;;;;5109740;28;20039;-63
2023/01/31 06:25:51;;;;;;;37.53;4.95;;;5.60;99.90;;;;;;5143741;27;20503;-63
2023/01/31 06:28:18;;;;;;;43.03;3.60;;;5.60;99.90;;;;;;5108679;28;20051;-63
2023/01/31 06:30:44;;;;;;;40.05;5.30;;;5.60;99.90;;;;;;5111851;27;20475;-63
2023/01/31 06:33:11;;;;;;;13.57;2.03;;;5.60;99.90;;;;;;5109700;28;20048;-63
2023/01/31 06:35:37;;;;;;;29.70;3.60;;;5.60;99.90;;;;;;5109715;28;20063;-63
2023/01/31 06:38:04;;;;;;;24.63;3.58;;;5.60;99.90;;;;;;5112159;27;20032;-63
2023/01/31 06:40:30;;;;;;;16.20;1.83;;;5.70;99.90;;;;;;5120181;27;20036;-63
2023/01/31 06:42:56;;;;;;;21.88;3.35;;;5.70;99.90;;;;;;5108787;28;20508;-63
2023/01/31 06:45:22;;;;;;;33.20;4.75;;;5.70;99.90;;;;;;5109216;27;20035;-63
2023/01/31 06:47:48;;;;;;;20.58;2.65;;;5.70;99.90;;;;;;5109917;28;20445;-63
2023/01/31 06:50:14;;;;;;;10.52;1.85;;;5.70;99.90;;;;;;5107836;27;20482;-63
2023/01/31 06:52:40;;;;;;;25.13;3.13;;;5.70;99.90;;;;;;5100737;27;20040;-63
2023/01/31 06:55:07;;;;;;;21.20;3.50;;;5.80;99.90;;;;;;5110818;27;20628;-63
2023/01/31 06:57:32;;;;;;;32.10;4.00;;;5.80;99.90;;;;;;5109214;28;20035;-63
2023/01/31 06:59:58;;;;;;;10.73;2.28;;;5.80;99.90;;;;;;5108998;28;20070;-63
2023/01/31 07:02:24;;;;;;;23.30;3.03;;;5.90;99.90;;;;;;5111117;27;20043;-63
2023/01/31 07:04:50;;;;;;;31.20;3.53;;;5.90;99.90;;;;;;5115059;27;20097;-63
2023/01/31 07:07:16;;;;;;;27.73;5.03;;;5.90;99.90;;;;;;5109072;28;20035;-63
2023/01/31 07:09:42;;;;;;;17.73;2.20;;;5.90;99.90;;;;;;5101216;28;20440;-63
2023/01/31 07:12:08;;;;;;;19.70;2.90;;;5.90;99.90;;;;;;5101266;28;20442;-63
2023/01/31 07:14:34;;;;;;;25.20;3.97;;;5.90;99.90;;;;;;5121754;27;20089;-63
2023/01/31 07:16:59;;;;;;;27.23;3.35;;;5.90;99.90;;;;;;5109636;28;20043;-63
2023/01/31 07:19:25;;;;;;;26.05;3.33;;;5.90;99.90;;;;;;5108638;28;20362;-63
2023/01/31 07:21:51;;;;;;;12.77;1.98;;;5.90;99.90;;;;;;5109953;28;20123;-63
2023/01/31 07:24:17;;;;;;;16.38;2.53;;;5.90;99.90;;;;;;5119319;27;20133;-63
2023/01/31 07:26:43;;;;;;;23.77;2.65;;;5.90;99.90;;;;;;5100151;28;20089;-63
2023/01/31 07:29:10;;;;;;;31.55;3.75;;;5.90;99.90;;;;;;5104502;28;20424;-63
2023/01/31 07:31:38;;;;;;;16.75;2.25;;;5.90;99.90;;;;;;5102934;28;20078;-63
2023/01/31 07:34:04;;;;;;;21.17;3.58;;;5.90;99.90;;;;;;5102357;27;20053;-63
2023/01/31 07:36:30;;;;;;;25.08;3.38;;;5.90;99.90;;;;;;5105040;27;20525;-64
2023/01/31 07:38:57;;;;;;;23.70;2.35;;;5.90;99.90;;;;;;5105853;28;20028;-64
2023/01/31 07:41:24;;;;;;;19.10;2.92;;;6.00;99.90;;;;;;5086375;28;20406;-63
2023/01/31 07:43:50;;;;;;;14.75;1.50;;;5.90;99.90;;;;;;5088250;28;20064;-64
2023/01/31 07:46:16;;;;;;;18.75;3.20;;;6.00;99.90;;;;;;5094042;27;20503;-63
2023/01/31 07:48:42;;;;;;;10.57;2.05;;;6.00;99.90;;;;;;5109035;27;20043;-63
2023/01/31 07:51:09;;;;;;;12.27;1.92;;;6.00;99.90;;;;;;5095776;27;20525;-64
2023/01/31 07:53:40;;;;;;;14.63;2.05;;;6.00;99.90;;;;;;5120868;27;20084;-63
2023/01/31 07:56:08;;;;;;;26.02;3.95;;;6.00;99.90;;;;;;5083655;28;20078;-63
2023/01/31 07:58:35;;;;;;;9.65;2.22;;;6.00;99.90;;;;;;5103769;27;20044;-63
2023/01/31 08:03:45;;;;;;;23.85;4.60;;;6.00;99.90;;;;;;5102223;27;20044;-63
2023/01/31 08:06:12;;;;;;;20.65;3.38;;;6.10;99.90;;;;;;5091974;28;20043;-63
2023/01/31 08:08:39;;;;;;;24.42;3.47;;;6.00;99.90;;;;;;5094590;27;20054;-64
2023/01/31 08:11:05;;;;;;;31.95;4.43;;;6.00;99.90;;;;;;5089592;28;20111;-63
2023/01/31 08:13:32;;;;;;;8.52;1.60;;;6.00;99.90;;;;;;5116291;27;20131;-63
2023/01/31 08:15:58;;;;;;;6.07;1.17;;;6.00;99.90;;;;;;5124283;27;20044;-64
2023/01/31 08:18:24;;;;;;;19.38;3.40;;;6.10;99.90;;;;;;5110039;27;20047;-62
2023/01/31 08:20:51;;;;;;;10.73;1.63;;;6.10;99.90;;;;;;5098611;27;20051;-63
2023/01/31 08:23:17;;;;;;;14.63;1.98;;;6.10;99.90;;;;;;5104137;27;20071;-63
2023/01/31 08:25:42;;;;;;;14.32;1.75;;;6.10;99.90;;;;;;5089819;28;20040;-64
2023/01/31 08:28:09;;;;;;;1.98;0.77;;;6.10;99.90;;;;;;5088055;28;20040;-63
2023/01/31 08:30:39;;;;;;;11.38;1.63;;;6.10;99.90;;;;;;5087526;28;20043;-63
2023/01/31 08:33:05;;;;;;;2.15;0.77;;;6.20;99.90;;;;;;5091834;28;20386;-63
2023/01/31 08:35:31;;;;;;;7.78;1.95;;;6.20;99.90;;;;;;5093885;27;20065;-63
2023/01/31 08:37:57;;;;;;;1.60;0.75;;;6.30;99.90;;;;;;5087001;28;20059;-64
2023/01/31 08:40:23;;;;;;;6.72;1.35;;;6.30;99.90;;;;;;5087018;28;20047;-63
2023/01/31 08:43:01;;;;;;;4.47;0.88;;;6.40;99.90;;;;;;5089282;28;20058;-63
2023/01/31 08:45:29;;;;;;;7.38;1.20;;;6.40;99.90;;;;;;5093902;28;20040;-63
2023/01/31 08:47:56;;;;;;;3.15;1.25;;;6.40;99.90;;;;;;5087479;28;20402;-64
2023/01/31 08:50:24;;;;;;;17.35;2.50;;;6.40;99.90;;;;;;5084920;28;20051;-63
2023/01/31 08:52:54;;;;;;;4.82;1.13;;;6.50;99.90;;;;;;5074747;27;20044;-63
2023/01/31 08:55:21;;;;;;;;;;;6.50;99.90;;;;;;5102629;28;20039;-63
2023/01/31 08:57:47;;;;;;;3.03;0.77;;;6.50;99.90;;;;;;5093849;28;19919;-63
2023/01/31 09:00:13;;;;;;;4.55;0.85;;;6.50;99.90;;;;;;5102745;28;20036;-64
2023/01/31 09:02:40;;;;;;;6.30;1.85;;;6.60;99.90;;;;;;5088953;28;20039;-63
2023/01/31 09:05:09;;;;;;;10.65;1.25;;;6.60;99.90;;;;;;5099981;28;20044;-63
2023/01/31 09:07:35;;;;;;;4.72;1.33;;;6.60;99.90;;;;;;5086588;28;20371;-63
2023/01/31 09:10:00;;;;;;;7.45;1.55;;;6.70;99.90;;;;;;5090024;28;20055;-64
2023/01/31 09:12:26;;;;;;;8.48;1.23;;;6.70;99.90;;;;;;5106885;28;20122;-63
2023/01/31 09:14:52;;;;;;;8.55;2.00;;;6.70;99.90;;;;;;5120513;27;20054;-63
2023/01/31 09:17:18;;;;;;;10.52;1.63;;;6.70;99.90;;;;;;5113308;27;20512;-63
2023/01/31 09:19:44;;;;;;;9.32;1.17;;;6.70;99.90;;;;;;5110857;28;20040;-64
2023/01/31 09:22:10;;;;;;;8.32;1.33;;;6.80;99.90;;;;;;5112147;28;20043;-64
2023/01/31 09:24:35;;;;;;;2.58;0.93;;;6.70;99.90;;;;;;5098765;27;20123;-63
2023/01/31 09:27:01;;;;;;;4.05;0.95;;;6.80;99.90;;;;;;5107004;27;20068;-63
2023/01/31 09:29:28;;;;;;;5.65;0.98;;;6.70;99.90;;;;;;5107659;28;20047;-63
2023/01/31 09:31:55;;;;;;;14.25;1.95;;;6.80;99.90;;;;;;5087130;28;20173;-63
2023/01/31 09:34:21;;;;;;;17.52;2.83;;;6.80;99.90;;;;;;5105803;28;20118;-63
2023/01/31 09:36:47;;;;;;;4.82;1.75;;;6.80;99.90;;;;;;5098466;27;20043;-63
2023/01/31 09:39:13;;;;;;;8.07;0.95;;;6.80;99.90;;;;;;5109719;28;20039;-63
2023/01/31 09:42:00;;;;;;;8.57;1.88;;;6.80;99.90;;;;;;5090147;28;20119;-63
2023/01/31 09:44:36;;;;;;;7.28;1.73;;;6.80;99.90;;;;;;5130078;27;20047;-63
2023/01/31 09:47:21;;;;;;;4.30;1.08;;;6.80;99.90;;;;;;5108433;27;20068;-63
2023/01/31 09:50:11;;;;;;;12.95;1.38;;;6.80;99.90;;;;;;5094224;27;20071;-63
2023/01/31 09:52:37;;;;;;;29.85;1.60;;;6.80;99.90;;;;;;5089179;28;20043;-63
2023/01/31 09:55:04;;;;;;;2.10;0.82;;;6.90;99.90;;;;;;5089231;28;20086;-63
2023/01/31 09:58:10;;;;;;;8.63;1.33;;;6.90;99.90;;;;;;5099695;27;20722;-63
2023/01/31 10:00:49;;;;;;;5.45;1.27;;;6.90;99.90;;;;;;5084265;28;20348;-63
2023/01/31 10:03:43;;;;;;;13.57;1.50;;;6.80;99.90;;;;;;5096143;27;20494;-62
2023/01/31 10:06:27;;;;;;;13.40;1.77;;;6.90;99.90;;;;;;5108401;28;20104;-63
2023/01/31 10:09:18;;;;;;;5.28;0.98;;;6.90;99.90;;;;;;5103939;28;20047;-63
2023/01/31 10:11:58;;;;;;;8.18;1.65;;;6.90;99.90;;;;;;5096442;28;20059;-63
2023/01/31 10:14:35;;;;;;;6.82;1.10;;;6.90;99.90;;;;;;5089488;28;20052;-63
2023/01/31 10:17:33;;;;;;;12.10;1.80;;;6.90;99.90;;;;;;5092585;27;20418;-63
2023/01/31 10:20:19;;;;;;;22.27;4.15;;;6.90;99.90;;;;;;5094554;28;20457;-63
2023/01/31 10:22:59;;;;;;;7.07;1.25;;;6.90;99.90;;;;;;5093603;28;20048;-63
2023/01/31 10:25:54;;;;;;;6.20;1.02;;;6.90;99.90;;;;;;5104355;28;20079;-63
2023/01/31 10:28:32;;;;;;;15.48;2.97;;;7.00;99.90;;;;;;5100931;27;20043;-63
2023/01/31 10:31:00;;;;;;;34.45;4.60;;;7.00;99.90;;;;;;5104704;28;20047;-63
2023/01/31 10:33:46;;;;;;;10.63;2.33;;;7.00;99.90;;;;;;5105664;28;20144;-63
2023/01/31 10:36:39;;;;;;;2.75;1.20;;;7.00;99.90;;;;;;5105699;28;20040;-63
2023/01/31 10:39:05;;;;;;;8.45;1.60;;;7.00;99.90;;;;;;5091858;27;20631;-63
2023/01/31 10:41:43;;;;;;;5.80;1.45;;;7.00;99.90;;;;;;5098015;27;20074;-63
2023/01/31 10:44:38;;;;;;;8.15;2.00;;;7.00;99.90;;;;;;5108258;27;20524;-63
2023/01/31 10:47:14;;;;;;;7.57;1.55;;;7.00;99.90;;;;;;5107870;27;20499;-63
2023/01/31 10:49:45;;;;;;;8.80;1.00;;;6.90;99.90;;;;;;5125285;27;20087;-64
2023/01/31 10:52:13;;;;;;;5.70;0.98;;;6.90;99.90;;;;;;5105013;27;20085;-64
2023/01/31 10:54:58;;;;;;;8.93;1.33;;;6.90;99.90;;;;;;5105449;27;20047;-63
2023/01/31 10:57:23;;;;;;;4.43;1.30;;;6.90;99.90;;;;;;5096722;27;20036;-63
2023/01/31 10:59:52;;;;;;;5.00;1.52;;;6.80;99.90;;;;;;5108129;27;20055;-63
2023/01/31 11:02:24;;;;;;;5.93;1.05;;;6.80;99.90;;;;;;5102625;28;20051;-63
2023/01/31 11:04:51;;;;;;;9.82;2.17;;;6.80;99.90;;;;;;5092513;27;20086;-63
2023/01/31 11:07:18;;;;;;;13.85;2.03;;;6.90;99.90;;;;;;5126446;27;20173;-63
2023/01/31 11:09:53;;;;;;;14.10;3.45;;;6.90;99.90;;;;;;5111997;27;20051;-63
2023/01/31 11:12:37;;;;;;;4.97;0.95;;;6.80;99.90;;;;;;5108662;27;20039;-63
2023/01/31 11:15:15;;;;;;;8.25;1.60;;;6.90;99.90;;;;;;5108744;27;20126;-63
2023/01/31 11:17:42;;;;;;;10.80;1.98;;;6.90;99.90;;;;;;5100399;27;20048;-63
2023/01/31 11:20:27;;;;;;;7.78;1.63;;;7.00;99.90;;;;;;5106112;27;20085;-63
2023/01/31 11:22:54;;;;;;;11.85;1.90;;;7.00;99.90;;;;;;5099152;27;20051;-63
2023/01/31 11:25:23;;;;;;;13.82;3.38;;;6.90;99.90;;;;;;5104940;27;20043;-63
2023/01/31 11:27:53;;;;;;;20.25;2.53;;;7.00;99.90;;;;;;5094776;28;20323;-63
2023/01/31 11:30:25;;;;;;;4.53;0.97;;;7.00;99.90;;;;;;5104626;27;20044;-63
2023/01/31 11:32:51;;;;;;;22.50;4.07;;;7.10;99.90;;;;;;5099327;27;20056;-63
2023/01/31 11:35:16;;;;;;;3.80;1.25;;;7.10;99.90;;;;;;5107990;27;20055;-63
2023/01/31 11:38:08;;;;;;;9.13;2.33;;;7.10;99.90;;;;;;5093070;28;20437;-63
2023/01/31 11:40:39;;;;;;;22.98;3.65;;;7.10;99.90;;;;;;5079161;27;20061;-63
2023/01/31 11:43:19;;;;;;;;;;;7.10;99.90;;;;;;5097475;27;20506;-63
2023/01/31 11:45:46;;;;;;;;;;;7.10;99.90;;;;;;5092113;27;19930;-64
2023/01/31 11:48:17;;;;;;;9.80;1.90;;;7.10;99.90;;;;;;5101811;27;19919;-64
2023/01/31 11:50:54;;;;;;;13.70;2.92;;;7.20;99.90;;;;;;5093294;27;20075;-64
2023/01/31 11:53:29;;;;;;;4.25;1.20;;;7.20;99.90;;;;;;5101557;27;20044;-63
2023/01/31 11:56:11;;;;;;;19.80;3.53;;;7.20;99.90;;;;;;5104738;27;20047;-63
2023/01/31 11:58:39;;;;;;;29.20;3.50;;;7.30;99.90;;;;;;5104560;28;20039;-64
2023/01/31 12:01:12;;;;;;;11.63;1.48;;;7.30;99.90;;;;;;5106477;28;20047;-63
2023/01/31 12:03:44;;;;;;;13.80;2.58;;;7.40;99.90;;;;;;5104288;27;20074;-63
2023/01/31 12:06:34;;;;;;;9.13;1.25;;;7.40;99.90;;;;;;5089112;27;20036;-64
2023/01/31 12:09:18;;;;;;;21.50;3.93;;;7.60;99.90;;;;;;5091130;28;20047;-63
2023/01/31 12:11:56;;;;;;;33.10;5.05;;;7.70;99.90;;;;;;5106885;27;20576;-64
2023/01/31 12:14:24;;;;;;;18.77;3.80;;;7.80;99.90;;;;;;5111689;27;20535;-64
2023/01/31 12:16:54;;;;;;;6.53;1.33;;;7.70;99.90;;;;;;5106689;27;20489;-64
2023/01/31 12:19:29;;;;;;;20.25;2.83;;;7.80;99.90;;;;;;5115329;27;20059;-63
2023/01/31 12:22:23;;;;;;;3.50;1.60;;;7.80;99.90;;;;;;5106753;28;20133;-63
2023/01/31 12:25:15;;;;;;;3.97;1.17;;;7.80;99.90;;;;;;5098021;27;20055;-64
2023/01/31 12:28:11;;;;;;;6.93;2.03;;;7.80;99.90;;;;;;5101767;27;20048;-64
2023/01/31 12:31:04;;;;;;;18.67;3.33;;;7.80;99.90;;;;;;5105507;28;20044;-64
2023/01/31 12:33:42;;;;;;;8.57;1.35;;;7.80;99.90;;;;;;5091290;28;20117;-64
2023/01/31 12:36:52;;;;;;;2.63;0.90;;;7.80;99.90;;;;;;5101593;28;20048;-64
2023/01/31 12:39:36;;;;;;;16.95;2.17;;;7.80;99.90;;;;;;5063622;28;20043;-64
2023/01/31 12:42:24;;;;;;;21.92;4.03;;;7.90;99.90;;;;;;5092984;28;20036;-63
2023/01/31 12:44:56;;;;;;;9.25;1.88;;;7.90;99.90;;;;;;5100556;28;20387;-64
2023/01/31 12:47:26;;;;;;;4.22;1.33;;;7.90;99.90;;;;;;5099674;28;20058;-63
2023/01/31 12:50:17;;;;;;;17.75;3.70;;;7.90;99.90;;;;;;5101127;28;20512;-64
2023/01/31 12:52:49;;;;;;;12.35;2.95;;;8.00;99.90;;;;;;5099669;28;20575;-63
2023/01/31 12:55:22;;;;;;;12.48;1.88;;;8.10;99.90;;;;;;5103225;28;20044;-64
2023/01/31 12:58:14;;;;;;;17.45;2.78;;;8.10;99.90;;;;;;5101557;28;20435;-63
2023/01/31 13:01:01;;;;;;;6.63;1.50;;;8.20;99.90;;;;;;5088796;28;20062;-63
2023/01/31 13:03:43;;;;;;;11.13;1.75;;;8.40;99.90;;;;;;5099593;28;20044;-64
2023/01/31 13:06:17;;;;;;;21.55;3.67;;;8.40;99.90;;;;;;5099252;28;20035;-64
2023/01/31 13:08:54;;;;;;;22.48;4.07;;;8.40;99.90;;;;;;5102448;28;20031;-65
2023/01/31 13:11:28;;;;;;;17.98;2.15;;;8.50;99.90;;;;;;5103996;28;20110;-65
2023/01/31 13:14:00;;;;;;;21.50;4.25;;;8.50;99.90;;;;;;5097426;28;20570;-64
2023/01/31 13:16:36;;;;;;;12.40;2.60;;;8.60;99.90;;;;;;5099063;28;20414;-64
2023/01/31 13:19:12;;;;;;;24.40;4.82;;;8.60;99.90;;;;;;5093340;28;20082;-64
2023/01/31 13:21:44;;;;;;;29.98;5.50;;;8.60;99.90;;;;;;5102377;28;20038;-64
2023/01/31 13:24:35;;;;;;;18.40;3.58;;;8.60;99.90;;;;;;5093392;28;20048;-65
2023/01/31 13:27:15;;;;;;;27.48;5.45;;;8.60;99.90;;;;;;5099596;28;20039;-65